sensor_id;sensor_type;location;lat;lon;timestamp;P1;durP1;ratioP1;P2;durP2;ratioP2
33644;SDS011;19986;48.190;16.366;2022-12-04T05:05:08;95.50;;;85.88;;
33644;SDS011;19986;48.190;16.366;2022-12-04T05:07:36;94.47;;;85.38;;
33644;SDS011;19986;48.190;16.366;2022-12-04T05:10:03;98.28;;;88.68;;
33644;SDS011;19986;48.190;16.366;2022-12-04T05:12:29;99.75;;;90.53;;
33644;SDS011;19986;48.190;16.366;2022-12-04T05:14:55;99.35;;;89.82;;
33644;SDS011;19986;48.190;16.366;2022-12-04T05:17:21;97.32;;;87.63;;
33644;SDS011;19986;48.190;16.366;2022-12-04T05:19:47;97.13;;;87.63;;
33644;SDS011;19986;48.190;16.366;2022-12-04T05:22:19;96.60;;;86.93;;
33644;SDS011;19986;48.190;16.366;2022-12-04T05:24:47;98.78;;;89.13;;
33644;SDS011;19986;48.190;16.366;2022-12-04T05:27:13;93.13;;;84.00;;
33644;SDS011;19986;48.190;16.366;2022-12-04T05:29:39;96.38;;;86.75;;
33644;SDS011;19986;48.190;16.366;2022-12-04T05:32:05;94.05;;;84.55;;
33644;SDS011;19986;48.190;16.366;2022-12-04T05:34:31;96.28;;;86.47;;
33644;SDS011;19986;48.190;16.366;2022-12-04T05:36:57;99.47;;;89.88;;
33644;SDS011;19986;48.190;16.366;2022-12-04T05:39:23;98.43;;;88.78;;
33644;SDS011;19986;48.190;16.366;2022-12-04T05:41:49;100.45;;;90.65;;
33644;SDS011;19986;48.190;16.366;2022-12-04T05:44:14;100.57;;;90.45;;
33644;SDS011;19986;48.190;16.366;2022-12-04T05:46:40;95.43;;;85.78;;
33644;SDS011;19986;48.190;16.366;2022-12-04T05:49:06;98.53;;;88.30;;
33644;SDS011;19986;48.190;16.366;2022-12-04T05:51:32;99.05;;;88.88;;
33644;SDS011;19986;48.190;16.366;2022-12-04T05:53:59;101.07;;;90.57;;
33644;SDS011;19986;48.190;16.366;2022-12-04T05:56:25;103.07;;;92.28;;
33644;SDS011;19986;48.190;16.366;2022-12-04T05:58:51;99.25;;;88.90;;
33644;SDS011;19986;48.190;16.366;2022-12-04T06:01:18;99.72;;;89.25;;
33644;SDS011;19986;48.190;16.366;2022-12-04T06:03:46;98.13;;;87.88;;
33644;SDS011;19986;48.190;16.366;2022-12-04T06:06:19;103.00;;;92.20;;
33644;SDS011;19986;48.190;16.366;2022-12-04T06:08:46;100.82;;;90.22;;
33644;SDS011;19986;48.190;16.366;2022-12-04T06:11:14;99.78;;;89.25;;
33644;SDS011;19986;48.190;16.366;2022-12-04T06:13:42;100.53;;;90.03;;
33644;SDS011;19986;48.190;16.366;2022-12-04T06:18:49;98.30;;;87.88;;
33644;SDS011;19986;48.190;16.366;2022-12-04T06:21:16;101.70;;;90.90;;
33644;SDS011;19986;48.190;16.366;2022-12-04T06:23:43;101.50;;;90.05;;
33644;SDS011;19986;48.190;16.366;2022-12-04T06:26:09;103.80;;;92.65;;
33644;SDS011;19986;48.190;16.366;2022-12-04T06:28:35;102.35;;;91.38;;
33644;SDS011;19986;48.190;16.366;2022-12-04T06:31:02;99.10;;;88.30;;
33644;SDS011;19986;48.190;16.366;2022-12-04T06:33:33;104.50;;;88.90;;
33644;SDS011;19986;48.190;16.366;2022-12-04T06:36:00;101.15;;;89.80;;
33644;SDS011;19986;48.190;16.366;2022-12-04T06:38:29;99.47;;;88.63;;
33644;SDS011;19986;48.190;16.366;2022-12-04T06:40:55;103.47;;;89.10;;
33644;SDS011;19986;48.190;16.366;2022-12-04T06:43:21;101.55;;;90.43;;
33644;SDS011;19986;48.190;16.366;2022-12-04T06:45:47;100.72;;;88.07;;
33644;SDS011;19986;48.190;16.366;2022-12-04T06:48:22;100.40;;;89.57;;
33644;SDS011;19986;48.190;16.366;2022-12-04T06:50:48;100.93;;;86.20;;
33644;SDS011;19986;48.190;16.366;2022-12-04T06:53:14;96.22;;;85.70;;
33644;SDS011;19986;48.190;16.366;2022-12-04T06:55:45;100.70;;;88.38;;
33644;SDS011;19986;48.190;16.366;2022-12-04T06:58:12;97.35;;;84.28;;
33644;SDS011;19986;48.190;16.366;2022-12-04T07:00:38;100.22;;;89.55;;
33644;SDS011;19986;48.190;16.366;2022-12-04T07:03:04;98.03;;;87.15;;
33644;SDS011;19986;48.190;16.366;2022-12-04T07:05:30;95.07;;;84.78;;
33644;SDS011;19986;48.190;16.366;2022-12-04T07:07:57;97.70;;;87.05;;
33644;SDS011;19986;48.190;16.366;2022-12-04T07:10:23;98.22;;;87.60;;
33644;SDS011;19986;48.190;16.366;2022-12-04T07:12:48;94.90;;;83.93;;
33644;SDS011;19986;48.190;16.366;2022-12-04T07:15:14;100.43;;;89.85;;
33644;SDS011;19986;48.190;16.366;2022-12-04T07:17:40;92.00;;;81.95;;
33644;SDS011;19986;48.190;16.366;2022-12-04T07:20:06;94.13;;;83.80;;
33644;SDS011;19986;48.190;16.366;2022-12-04T07:22:32;94.53;;;84.15;;
33644;SDS011;19986;48.190;16.366;2022-12-04T07:24:58;98.82;;;84.25;;
33644;SDS011;19986;48.190;16.366;2022-12-04T07:27:24;97.45;;;87.30;;
33644;SDS011;19986;48.190;16.366;2022-12-04T07:29:50;93.53;;;83.05;;
33644;SDS011;19986;48.190;16.366;2022-12-04T07:32:17;93.55;;;83.70;;
33644;SDS011;19986;48.190;16.366;2022-12-04T07:34:43;93.88;;;83.90;;
33644;SDS011;19986;48.190;16.366;2022-12-04T07:37:08;96.65;;;84.78;;
33644;SDS011;19986;48.190;16.366;2022-12-04T07:39:34;89.78;;;80.40;;
33644;SDS011;19986;48.190;16.366;2022-12-04T07:42:00;92.75;;;82.88;;
33644;SDS011;19986;48.190;16.366;2022-12-04T07:44:26;92.28;;;82.47;;
33644;SDS011;19986;48.190;16.366;2022-12-04T07:46:56;95.47;;;82.82;;
33644;SDS011;19986;48.190;16.366;2022-12-04T07:49:22;93.97;;;82.90;;
33644;SDS011;19986;48.190;16.366;2022-12-04T07:51:47;90.43;;;80.45;;
33644;SDS011;19986;48.190;16.366;2022-12-04T07:54:13;94.05;;;81.57;;
33644;SDS011;19986;48.190;16.366;2022-12-04T07:56:39;96.07;;;82.70;;
33644;SDS011;19986;48.190;16.366;2022-12-04T07:59:05;86.95;;;77.55;;
33644;SDS011;19986;48.190;16.366;2022-12-04T08:01:31;91.93;;;79.07;;
33644;SDS011;19986;48.190;16.366;2022-12-04T08:03:58;89.10;;;79.50;;
33644;SDS011;19986;48.190;16.366;2022-12-04T08:06:25;87.43;;;78.25;;
33644;SDS011;19986;48.190;16.366;2022-12-04T08:08:52;88.47;;;78.07;;
33644;SDS011;19986;48.190;16.366;2022-12-04T08:11:20;88.05;;;77.88;;
33644;SDS011;19986;48.190;16.366;2022-12-04T08:13:47;90.35;;;77.82;;
33644;SDS011;19986;48.190;16.366;2022-12-04T08:16:17;89.45;;;79.97;;
33644;SDS011;19986;48.190;16.366;2022-12-04T08:18:43;92.47;;;77.13;;
33644;SDS011;19986;48.190;16.366;2022-12-04T08:21:14;92.25;;;77.25;;
33644;SDS011;19986;48.190;16.366;2022-12-04T08:23:42;89.13;;;77.13;;
33644;SDS011;19986;48.190;16.366;2022-12-04T08:26:09;93.22;;;78.15;;
33644;SDS011;19986;48.190;16.366;2022-12-04T08:28:35;95.97;;;80.43;;
33644;SDS011;19986;48.190;16.366;2022-12-04T08:31:02;98.95;;;82.47;;
33644;SDS011;19986;48.190;16.366;2022-12-04T08:33:29;97.57;;;78.03;;
33644;SDS011;19986;48.190;16.366;2022-12-04T08:35:55;97.25;;;78.05;;
33644;SDS011;19986;48.190;16.366;2022-12-04T08:38:21;104.40;;;81.85;;
33644;SDS011;19986;48.190;16.366;2022-12-04T08:40:47;97.10;;;77.80;;
33644;SDS011;19986;48.190;16.366;2022-12-04T08:43:13;100.38;;;80.25;;
33644;SDS011;19986;48.190;16.366;2022-12-04T08:45:39;97.85;;;76.35;;
33644;SDS011;19986;48.190;16.366;2022-12-04T08:48:05;103.82;;;81.03;;
33644;SDS011;19986;48.190;16.366;2022-12-04T08:50:31;95.50;;;76.05;;
33644;SDS011;19986;48.190;16.366;2022-12-04T08:52:57;98.78;;;77.95;;
33644;SDS011;19986;48.190;16.366;2022-12-04T08:55:23;99.43;;;79.47;;
33644;SDS011;19986;48.190;16.366;2022-12-04T08:57:52;101.70;;;81.25;;
33644;SDS011;19986;48.190;16.366;2022-12-04T09:00:20;93.15;;;75.30;;
33644;SDS011;19986;48.190;16.366;2022-12-04T09:06:09;96.78;;;75.28;;
33644;SDS011;19986;48.190;16.366;2022-12-04T09:08:37;90.63;;;78.03;;
33644;SDS011;19986;48.190;16.366;2022-12-04T09:11:08;88.93;;;74.93;;
33644;SDS011;19986;48.190;16.366;2022-12-04T09:13:36;93.53;;;75.28;;
33644;SDS011;19986;48.190;16.366;2022-12-04T09:16:04;99.50;;;77.53;;
33644;SDS011;19986;48.190;16.366;2022-12-04T09:18:33;91.20;;;77.18;;
33644;SDS011;19986;48.190;16.366;2022-12-04T09:21:01;97.22;;;80.78;;
33644;SDS011;19986;48.190;16.366;2022-12-04T09:23:28;93.68;;;78.90;;
33644;SDS011;19986;48.190;16.366;2022-12-04T09:25:55;97.93;;;80.45;;
33644;SDS011;19986;48.190;16.366;2022-12-04T09:28:21;98.30;;;78.50;;
33644;SDS011;19986;48.190;16.366;2022-12-04T09:30:57;98.43;;;78.68;;
33644;SDS011;19986;48.190;16.366;2022-12-04T09:33:25;95.93;;;76.97;;
33644;SDS011;19986;48.190;16.366;2022-12-04T09:35:51;94.72;;;77.82;;
33644;SDS011;19986;48.190;16.366;2022-12-04T09:38:18;93.78;;;75.05;;
33644;SDS011;19986;48.190;16.366;2022-12-04T09:43:48;88.57;;;76.75;;
33644;SDS011;19986;48.190;16.366;2022-12-04T09:46:36;97.18;;;80.03;;
33644;SDS011;19986;48.190;16.366;2022-12-04T09:49:14;92.05;;;75.80;;
33644;SDS011;19986;48.190;16.366;2022-12-04T09:52:14;91.85;;;78.57;;
33644;SDS011;19986;48.190;16.366;2022-12-04T09:54:54;93.95;;;79.32;;
33644;SDS011;19986;48.190;16.366;2022-12-04T09:57:24;87.70;;;78.28;;
33644;SDS011;19986;48.190;16.366;2022-12-04T10:00:00;94.20;;;80.57;;
33644;SDS011;19986;48.190;16.366;2022-12-04T10:05:04;88.85;;;75.82;;
33644;SDS011;19986;48.190;16.366;2022-12-04T10:18:47;92.53;;;80.57;;
33644;SDS011;19986;48.190;16.366;2022-12-04T10:26:45;87.60;;;78.22;;
33644;SDS011;19986;48.190;16.366;2022-12-04T10:29:17;89.00;;;79.68;;
33644;SDS011;19986;48.190;16.366;2022-12-04T10:31:58;89.50;;;79.82;;
33644;SDS011;19986;48.190;16.366;2022-12-04T10:34:38;87.57;;;78.72;;
33644;SDS011;19986;48.190;16.366;2022-12-04T10:37:09;81.45;;;73.38;;
33644;SDS011;19986;48.190;16.366;2022-12-04T10:39:46;82.65;;;74.35;;
33644;SDS011;19986;48.190;16.366;2022-12-04T10:42:24;80.35;;;72.82;;
33644;SDS011;19986;48.190;16.366;2022-12-04T10:45:03;78.95;;;71.45;;
33644;SDS011;19986;48.190;16.366;2022-12-04T10:47:30;75.35;;;68.15;;
33644;SDS011;19986;48.190;16.366;2022-12-04T10:49:58;78.85;;;71.72;;
33644;SDS011;19986;48.190;16.366;2022-12-04T10:52:27;75.35;;;68.45;;
33644;SDS011;19986;48.190;16.366;2022-12-04T10:54:59;78.88;;;71.68;;
33644;SDS011;19986;48.190;16.366;2022-12-04T11:00:00;69.80;;;63.65;;
33644;SDS011;19986;48.190;16.366;2022-12-04T11:02:29;69.72;;;63.40;;
33644;SDS011;19986;48.190;16.366;2022-12-04T11:04:58;70.45;;;64.25;;
33644;SDS011;19986;48.190;16.366;2022-12-04T11:07:26;70.72;;;64.55;;
33644;SDS011;19986;48.190;16.366;2022-12-04T11:10:00;67.03;;;61.22;;
33644;SDS011;19986;48.190;16.366;2022-12-04T11:12:52;69.60;;;63.35;;
33644;SDS011;19986;48.190;16.366;2022-12-04T11:15:23;70.60;;;64.32;;
33644;SDS011;19986;48.190;16.366;2022-12-04T11:17:50;73.00;;;66.68;;
33644;SDS011;19986;48.190;16.366;2022-12-04T11:20:23;70.60;;;64.32;;
33644;SDS011;19986;48.190;16.366;2022-12-04T11:22:56;68.75;;;62.42;;
33644;SDS011;19986;48.190;16.366;2022-12-04T11:25:27;69.95;;;64.00;;
33644;SDS011;19986;48.190;16.366;2022-12-04T11:28:14;67.15;;;61.53;;
33644;SDS011;19986;48.190;16.366;2022-12-04T11:30:50;68.60;;;63.00;;
33644;SDS011;19986;48.190;16.366;2022-12-04T11:33:27;63.85;;;58.80;;
33644;SDS011;19986;48.190;16.366;2022-12-04T11:36:02;67.88;;;62.28;;
33644;SDS011;19986;48.190;16.366;2022-12-04T11:38:42;67.15;;;61.78;;
33644;SDS011;19986;48.190;16.366;2022-12-04T11:41:12;62.63;;;57.70;;
33644;SDS011;19986;48.190;16.366;2022-12-04T11:43:51;68.18;;;62.53;;
33644;SDS011;19986;48.190;16.366;2022-12-04T11:46:22;66.70;;;61.28;;
33644;SDS011;19986;48.190;16.366;2022-12-04T11:48:50;65.93;;;60.58;;
33644;SDS011;19986;48.190;16.366;2022-12-04T12:08:06;63.30;;;58.28;;
33644;SDS011;19986;48.190;16.366;2022-12-04T12:10:57;65.70;;;60.25;;
33644;SDS011;19986;48.190;16.366;2022-12-04T12:16:35;64.55;;;59.33;;
33644;SDS011;19986;48.190;16.366;2022-12-04T12:27:49;66.03;;;60.92;;
33644;SDS011;19986;48.190;16.366;2022-12-04T12:31:28;66.78;;;61.45;;
33644;SDS011;19986;48.190;16.366;2022-12-04T12:33:23;69.30;;;63.92;;
33644;SDS011;19986;48.190;16.366;2022-12-04T12:38:43;67.10;;;61.72;;
33644;SDS011;19986;48.190;16.366;2022-12-04T12:41:14;64.75;;;59.47;;
33644;SDS011;19986;48.190;16.366;2022-12-04T12:43:52;66.65;;;61.08;;
33644;SDS011;19986;48.190;16.366;2022-12-04T12:47:12;67.15;;;61.80;;
33644;SDS011;19986;48.190;16.366;2022-12-04T12:49:40;66.22;;;60.75;;
33644;SDS011;19986;48.190;16.366;2022-12-04T12:58:08;69.28;;;63.58;;
33644;SDS011;19986;48.190;16.366;2022-12-04T13:00:45;68.57;;;62.88;;
33644;SDS011;19986;48.190;16.366;2022-12-04T13:03:28;67.47;;;61.45;;
33644;SDS011;19986;48.190;16.366;2022-12-04T13:06:27;69.00;;;63.40;;
33644;SDS011;19986;48.190;16.366;2022-12-04T13:12:10;66.35;;;60.85;;
33644;SDS011;19986;48.190;16.366;2022-12-04T13:14:39;66.22;;;60.72;;
33644;SDS011;19986;48.190;16.366;2022-12-04T13:17:50;63.47;;;58.22;;
33644;SDS011;19986;48.190;16.366;2022-12-04T13:20:03;67.03;;;61.83;;
33644;SDS011;19986;48.190;16.366;2022-12-04T13:36:23;70.25;;;64.45;;
33644;SDS011;19986;48.190;16.366;2022-12-04T13:39:30;67.43;;;62.10;;
33644;SDS011;19986;48.190;16.366;2022-12-04T13:42:04;70.07;;;64.13;;
33644;SDS011;19986;48.190;16.366;2022-12-04T13:44:42;66.20;;;60.50;;
33644;SDS011;19986;48.190;16.366;2022-12-04T13:47:10;69.25;;;63.45;;
33644;SDS011;19986;48.190;16.366;2022-12-04T13:50:07;66.22;;;60.20;;
33644;SDS011;19986;48.190;16.366;2022-12-04T13:52:39;71.35;;;65.00;;
33644;SDS011;19986;48.190;16.366;2022-12-04T13:55:25;69.35;;;63.38;;
33644;SDS011;19986;48.190;16.366;2022-12-04T13:57:53;71.80;;;65.55;;
33644;SDS011;19986;48.190;16.366;2022-12-04T14:00:41;71.15;;;64.93;;
33644;SDS011;19986;48.190;16.366;2022-12-04T14:06:22;70.50;;;64.38;;
33644;SDS011;19986;48.190;16.366;2022-12-04T14:08:55;69.97;;;63.55;;
33644;SDS011;19986;48.190;16.366;2022-12-04T14:11:25;65.82;;;60.20;;
33644;SDS011;19986;48.190;16.366;2022-12-04T14:13:56;66.82;;;61.10;;
33644;SDS011;19986;48.190;16.366;2022-12-04T14:16:39;67.57;;;61.75;;
33644;SDS011;19986;48.190;16.366;2022-12-04T14:19:06;68.88;;;62.72;;
33644;SDS011;19986;48.190;16.366;2022-12-04T14:21:48;67.60;;;61.72;;
33644;SDS011;19986;48.190;16.366;2022-12-04T14:24:25;69.07;;;63.20;;
33644;SDS011;19986;48.190;16.366;2022-12-04T14:27:47;65.85;;;60.15;;
33644;SDS011;19986;48.190;16.366;2022-12-04T14:29:59;66.05;;;60.55;;
33644;SDS011;19986;48.190;16.366;2022-12-04T14:32:30;66.43;;;60.60;;
33644;SDS011;19986;48.190;16.366;2022-12-04T14:34:58;66.97;;;61.10;;
33644;SDS011;19986;48.190;16.366;2022-12-04T14:37:33;63.15;;;57.85;;
33644;SDS011;19986;48.190;16.366;2022-12-04T14:40:05;66.30;;;60.58;;
33644;SDS011;19986;48.190;16.366;2022-12-04T14:42:40;65.68;;;60.22;;
33644;SDS011;19986;48.190;16.366;2022-12-04T14:48:05;67.10;;;61.67;;
33644;SDS011;19986;48.190;16.366;2022-12-04T14:56:29;67.38;;;62.00;;
33644;SDS011;19986;48.190;16.366;2022-12-04T14:59:04;67.15;;;61.70;;
33644;SDS011;19986;48.190;16.366;2022-12-04T15:01:52;66.88;;;61.38;;
33644;SDS011;19986;48.190;16.366;2022-12-04T15:04:22;67.00;;;61.42;;
33644;SDS011;19986;48.190;16.366;2022-12-04T15:06:57;63.78;;;58.58;;
33644;SDS011;19986;48.190;16.366;2022-12-04T15:09:24;62.15;;;57.15;;
33644;SDS011;19986;48.190;16.366;2022-12-04T15:12:17;64.32;;;59.13;;
33644;SDS011;19986;48.190;16.366;2022-12-04T15:15:14;64.57;;;59.10;;
33644;SDS011;19986;48.190;16.366;2022-12-04T15:17:41;64.57;;;59.15;;
33644;SDS011;19986;48.190;16.366;2022-12-04T15:20:14;66.05;;;60.25;;
33644;SDS011;19986;48.190;16.366;2022-12-04T15:22:43;66.65;;;61.15;;
33644;SDS011;19986;48.190;16.366;2022-12-04T15:25:30;67.50;;;61.80;;
33644;SDS011;19986;48.190;16.366;2022-12-04T15:28:48;65.78;;;60.17;;
33644;SDS011;19986;48.190;16.366;2022-12-04T15:31:06;70.32;;;64.53;;
33644;SDS011;19986;48.190;16.366;2022-12-04T15:33:56;67.72;;;61.63;;
33644;SDS011;19986;48.190;16.366;2022-12-04T15:39:20;71.18;;;65.15;;
33644;SDS011;19986;48.190;16.366;2022-12-04T15:41:50;69.22;;;63.58;;
33644;SDS011;19986;48.190;16.366;2022-12-04T15:44:26;71.05;;;65.28;;
33644;SDS011;19986;48.190;16.366;2022-12-04T15:46:58;69.75;;;63.75;;
33644;SDS011;19986;48.190;16.366;2022-12-04T15:49:31;69.32;;;63.63;;
33644;SDS011;19986;48.190;16.366;2022-12-04T15:52:06;69.68;;;63.88;;
33644;SDS011;19986;48.190;16.366;2022-12-04T15:54:40;68.53;;;63.00;;
33644;SDS011;19986;48.190;16.366;2022-12-04T15:57:39;68.18;;;62.55;;
33644;SDS011;19986;48.190;16.366;2022-12-04T16:00:21;69.15;;;63.47;;
33644;SDS011;19986;48.190;16.366;2022-12-04T16:02:49;68.53;;;62.70;;
33644;SDS011;19986;48.190;16.366;2022-12-04T16:07:55;66.68;;;61.13;;
33644;SDS011;19986;48.190;16.366;2022-12-04T16:10:26;70.88;;;65.20;;
33644;SDS011;19986;48.190;16.366;2022-12-04T16:12:57;68.07;;;62.47;;
33644;SDS011;19986;48.190;16.366;2022-12-04T16:15:35;67.45;;;61.95;;
33644;SDS011;19986;48.190;16.366;2022-12-04T16:18:05;65.85;;;60.45;;
33644;SDS011;19986;48.190;16.366;2022-12-04T16:20:35;67.82;;;62.50;;
33644;SDS011;19986;48.190;16.366;2022-12-04T16:23:04;65.47;;;59.97;;
33644;SDS011;19986;48.190;16.366;2022-12-04T16:25:31;64.95;;;59.70;;
33644;SDS011;19986;48.190;16.366;2022-12-04T16:27:57;66.50;;;61.22;;
33644;SDS011;19986;48.190;16.366;2022-12-04T16:30:25;65.28;;;60.13;;
33644;SDS011;19986;48.190;16.366;2022-12-04T16:32:52;65.75;;;60.75;;
33644;SDS011;19986;48.190;16.366;2022-12-04T16:35:20;66.28;;;61.10;;
33644;SDS011;19986;48.190;16.366;2022-12-04T16:37:55;67.95;;;62.58;;
33644;SDS011;19986;48.190;16.366;2022-12-04T16:40:21;66.15;;;61.00;;
33644;SDS011;19986;48.190;16.366;2022-12-04T16:42:48;67.70;;;62.42;;
33644;SDS011;19986;48.190;16.366;2022-12-04T16:45:20;68.45;;;63.03;;
33644;SDS011;19986;48.190;16.366;2022-12-04T16:47:47;67.80;;;62.50;;
33644;SDS011;19986;48.190;16.366;2022-12-04T16:50:13;67.38;;;61.90;;
33644;SDS011;19986;48.190;16.366;2022-12-04T16:52:40;71.38;;;65.70;;
33644;SDS011;19986;48.190;16.366;2022-12-04T16:55:13;70.93;;;64.78;;
33644;SDS011;19986;48.190;16.366;2022-12-04T16:57:42;68.63;;;62.83;;
33644;SDS011;19986;48.190;16.366;2022-12-04T17:00:14;69.78;;;64.03;;
33644;SDS011;19986;48.190;16.366;2022-12-04T17:02:42;71.15;;;64.95;;
33644;SDS011;19986;48.190;16.366;2022-12-04T17:05:18;72.32;;;66.30;;
33644;SDS011;19986;48.190;16.366;2022-12-04T17:07:48;72.43;;;66.32;;
33644;SDS011;19986;48.190;16.366;2022-12-04T17:10:14;72.10;;;66.03;;
33644;SDS011;19986;48.190;16.366;2022-12-04T17:12:43;73.63;;;67.38;;
33644;SDS011;19986;48.190;16.366;2022-12-04T17:15:09;72.30;;;66.20;;
33644;SDS011;19986;48.190;16.366;2022-12-04T17:17:37;77.18;;;70.75;;
33644;SDS011;19986;48.190;16.366;2022-12-04T17:20:12;77.78;;;71.38;;
33644;SDS011;19986;48.190;16.366;2022-12-04T17:22:46;73.75;;;67.45;;
33644;SDS011;19986;48.190;16.366;2022-12-04T17:25:15;70.05;;;64.15;;
33644;SDS011;19986;48.190;16.366;2022-12-04T17:27:41;75.43;;;69.47;;
33644;SDS011;19986;48.190;16.366;2022-12-04T17:30:09;72.95;;;66.72;;
33644;SDS011;19986;48.190;16.366;2022-12-04T17:32:36;75.80;;;69.57;;
33644;SDS011;19986;48.190;16.366;2022-12-04T17:35:05;72.88;;;66.63;;
33644;SDS011;19986;48.190;16.366;2022-12-04T17:37:33;74.07;;;68.13;;
33644;SDS011;19986;48.190;16.366;2022-12-04T17:40:00;73.43;;;67.53;;
33644;SDS011;19986;48.190;16.366;2022-12-04T17:42:26;71.55;;;65.72;;
33644;SDS011;19986;48.190;16.366;2022-12-04T17:44:54;74.50;;;68.40;;
33644;SDS011;19986;48.190;16.366;2022-12-04T17:47:20;71.53;;;65.45;;
33644;SDS011;19986;48.190;16.366;2022-12-04T17:49:47;72.38;;;66.10;;
33644;SDS011;19986;48.190;16.366;2022-12-04T17:52:14;72.38;;;66.40;;
33644;SDS011;19986;48.190;16.366;2022-12-04T17:54:40;71.43;;;65.82;;
33644;SDS011;19986;48.190;16.366;2022-12-04T17:57:08;70.68;;;64.80;;
33644;SDS011;19986;48.190;16.366;2022-12-04T17:59:34;71.03;;;65.05;;
33644;SDS011;19986;48.190;16.366;2022-12-04T18:02:01;74.88;;;68.68;;
33644;SDS011;19986;48.190;16.366;2022-12-04T18:04:27;74.22;;;68.32;;
33644;SDS011;19986;48.190;16.366;2022-12-04T18:06:53;72.68;;;66.72;;
33644;SDS011;19986;48.190;16.366;2022-12-04T18:09:20;72.28;;;66.53;;
33644;SDS011;19986;48.190;16.366;2022-12-04T18:11:51;73.15;;;67.03;;
33644;SDS011;19986;48.190;16.366;2022-12-04T18:14:18;71.35;;;65.53;;
33644;SDS011;19986;48.190;16.366;2022-12-04T18:16:49;70.88;;;65.00;;
33644;SDS011;19986;48.190;16.366;2022-12-04T18:19:25;71.88;;;65.95;;
33644;SDS011;19986;48.190;16.366;2022-12-04T18:21:52;72.50;;;66.50;;
33644;SDS011;19986;48.190;16.366;2022-12-04T18:24:20;75.47;;;69.43;;
33644;SDS011;19986;48.190;16.366;2022-12-04T18:26:47;74.00;;;68.07;;
33644;SDS011;19986;48.190;16.366;2022-12-04T18:29:18;74.13;;;67.97;;
33644;SDS011;19986;48.190;16.366;2022-12-04T18:31:46;73.43;;;67.32;;
33644;SDS011;19986;48.190;16.366;2022-12-04T18:34:13;71.57;;;65.68;;
33644;SDS011;19986;48.190;16.366;2022-12-04T18:36:40;74.95;;;68.85;;
33644;SDS011;19986;48.190;16.366;2022-12-04T18:39:11;71.18;;;65.38;;
33644;SDS011;19986;48.190;16.366;2022-12-04T18:41:45;73.18;;;67.38;;
33644;SDS011;19986;48.190;16.366;2022-12-04T18:44:12;74.82;;;68.75;;
33644;SDS011;19986;48.190;16.366;2022-12-04T18:46:40;68.65;;;63.05;;
33644;SDS011;19986;48.190;16.366;2022-12-04T18:49:06;68.47;;;62.63;;
33644;SDS011;19986;48.190;16.366;2022-12-04T18:51:40;68.82;;;63.25;;
33644;SDS011;19986;48.190;16.366;2022-12-04T18:54:11;70.55;;;65.00;;
33644;SDS011;19986;48.190;16.366;2022-12-04T18:56:41;70.97;;;65.53;;
33644;SDS011;19986;48.190;16.366;2022-12-04T18:59:12;73.72;;;68.03;;
33644;SDS011;19986;48.190;16.366;2022-12-04T19:01:53;70.10;;;64.47;;
33644;SDS011;19986;48.190;16.366;2022-12-04T19:04:21;68.85;;;63.15;;
33644;SDS011;19986;48.190;16.366;2022-12-04T19:06:52;70.68;;;64.90;;
33644;SDS011;19986;48.190;16.366;2022-12-04T19:09:22;75.72;;;69.68;;
33644;SDS011;19986;48.190;16.366;2022-12-04T19:11:53;72.45;;;66.65;;
33644;SDS011;19986;48.190;16.366;2022-12-04T19:14:19;71.38;;;65.50;;
33644;SDS011;19986;48.190;16.366;2022-12-04T19:16:48;71.43;;;65.70;;
33644;SDS011;19986;48.190;16.366;2022-12-04T19:19:18;71.75;;;66.25;;
33644;SDS011;19986;48.190;16.366;2022-12-04T19:21:45;70.22;;;64.65;;
33644;SDS011;19986;48.190;16.366;2022-12-04T19:24:11;69.70;;;63.85;;
33644;SDS011;19986;48.190;16.366;2022-12-04T19:26:38;72.03;;;66.28;;
33644;SDS011;19986;48.190;16.366;2022-12-04T19:29:05;68.75;;;63.35;;
33644;SDS011;19986;48.190;16.366;2022-12-04T19:31:40;73.25;;;67.55;;
33644;SDS011;19986;48.190;16.366;2022-12-04T19:34:07;69.18;;;63.65;;
33644;SDS011;19986;48.190;16.366;2022-12-04T19:36:34;71.88;;;66.38;;
33644;SDS011;19986;48.190;16.366;2022-12-04T19:39:01;67.55;;;62.20;;
33644;SDS011;19986;48.190;16.366;2022-12-04T19:41:33;69.53;;;63.97;;
33644;SDS011;19986;48.190;16.366;2022-12-04T19:44:01;68.32;;;63.05;;
33644;SDS011;19986;48.190;16.366;2022-12-04T19:46:29;69.28;;;63.97;;
33644;SDS011;19986;48.190;16.366;2022-12-04T19:48:58;69.43;;;63.72;;
33644;SDS011;19986;48.190;16.366;2022-12-04T19:51:28;71.43;;;65.72;;
33644;SDS011;19986;48.190;16.366;2022-12-04T19:53:57;70.40;;;64.70;;
33644;SDS011;19986;48.190;16.366;2022-12-04T19:56:26;69.53;;;64.03;;
33644;SDS011;19986;48.190;16.366;2022-12-04T19:58:55;71.00;;;65.70;;
33644;SDS011;19986;48.190;16.366;2022-12-04T20:01:23;69.28;;;63.67;;
33644;SDS011;19986;48.190;16.366;2022-12-04T20:03:55;73.45;;;67.78;;
33644;SDS011;19986;48.190;16.366;2022-12-04T20:06:22;69.22;;;63.70;;
33644;SDS011;19986;48.190;16.366;2022-12-04T20:08:54;70.57;;;65.13;;
33644;SDS011;19986;48.190;16.366;2022-12-04T20:11:26;70.72;;;65.10;;
33644;SDS011;19986;48.190;16.366;2022-12-04T20:13:53;65.93;;;60.70;;
33644;SDS011;19986;48.190;16.366;2022-12-04T20:16:24;71.05;;;65.75;;
33644;SDS011;19986;48.190;16.366;2022-12-04T20:18:53;71.70;;;66.13;;
33644;SDS011;19986;48.190;16.366;2022-12-04T20:21:35;69.53;;;64.18;;
33644;SDS011;19986;48.190;16.366;2022-12-04T20:24:04;68.70;;;63.38;;
33644;SDS011;19986;48.190;16.366;2022-12-04T20:26:32;70.63;;;65.07;;
33644;SDS011;19986;48.190;16.366;2022-12-04T20:29:03;68.88;;;63.42;;
33644;SDS011;19986;48.190;16.366;2022-12-04T20:31:39;69.18;;;63.53;;
33644;SDS011;19986;48.190;16.366;2022-12-04T20:34:09;69.32;;;63.92;;
33644;SDS011;19986;48.190;16.366;2022-12-04T20:36:40;68.13;;;62.38;;
33644;SDS011;19986;48.190;16.366;2022-12-04T20:39:08;73.20;;;67.50;;
33644;SDS011;19986;48.190;16.366;2022-12-04T20:41:36;72.07;;;66.25;;
33644;SDS011;19986;48.190;16.366;2022-12-04T20:44:11;69.75;;;63.88;;
33644;SDS011;19986;48.190;16.366;2022-12-04T20:46:42;69.82;;;64.03;;
33644;SDS011;19986;48.190;16.366;2022-12-04T20:49:11;72.40;;;66.40;;
33644;SDS011;19986;48.190;16.366;2022-12-04T20:51:44;70.20;;;64.43;;
33644;SDS011;19986;48.190;16.366;2022-12-04T20:54:13;71.47;;;65.57;;
33644;SDS011;19986;48.190;16.366;2022-12-04T20:56:43;66.22;;;60.72;;
33644;SDS011;19986;48.190;16.366;2022-12-04T20:59:14;69.40;;;63.70;;
